Forside
METAR-TAF:

METAR-TAF

Lufthavne :

Juneau, Alaska, USA

Breddekreds: 58-21-17N, længdekreds: 134-34-34W, højde: 6 m

Aktuelle vejr

Denne rapport blev lavet for 59 minutter siden, kl. 08:53 UTC
Vind stille
Temperatur 1°C
Fugtighed 86%
Tryk 1016 hPa
Sigt: 16.1 km
Nogle få skyer i en højde af 12000 ft

METAR: PAJN 200853Z 00000KT 10SM FEW120 01/M01 A3001 RMK SLP161 T00061006 401500000 51010 VIA AUTODIAL

Tid: 01:52 (09:52 UTC)

Vejrudsigter

Denne rapport blev lavet for 4 timer og 32 minutter siden, kl. 05:20 UTC
Foreløbig gælder fra 20 på 06 UTC til 21 på 06 UTC
Vind 3 kt fra varierende retninger
Sigt: 10 km
skyfri
Fra 20 på 2000 UTC
Vind 6 kt fra vestsydvest
Sigt: 10 km
Spredte skyer i en højde af 15000 ft
Fra 21 på 0200 UTC
Vind 3 kt fra varierende retninger
Sigt: 10 km
Brudte skyer i en højde af 8000 ft
Overskyet i en højde af 10000 ft

TAF: PAJN 200520Z 2006/2106 VRB03KT P6SM SKC FM202000 25006KT P6SM SCT150 FM210200 VRB03KT P6SM BKN080 OVC100

Vejrobservationer og prognoser fra mere end 4000 lufthavne (METAR og TAF).

De gule og røde prikker repræsenterer de meteorologiske stationer.

Flyt musen over at se navnet på stationen.

Så klik over at se vejr observationer og prognoser.

At skifte det kort: Klik på de grønne knapper med et sort kors for at zoome ind; på den grønne knap med en bindestreg for at zoome ud; eller på de grønne pile for tilstødende kort.


METAR-TAF: